Time;durP1;ratioP1;P1;durP2;ratioP2;P2;SDS_P1;SDS_P2;PMS_P1;PMS_P2;Temp;Humidity;BMP_temperature;BMP_pressure;BME280_temperature;BME280_humidity;BME280_pressure;Samples;Min_cycle;Max_cycle;Signal;HPM_P1;HPM_P2
2023/04/02 00:00:36;;;;;;;16.23;9.10;;;;;;;2.45;73.40;100118.81;10454572;28;20036;-81
2023/04/02 00:05:50;;;;;;;16.33;8.30;;;;;;;2.60;74.46;100135.97;10455067;28;20045;-80
2023/04/02 00:11:01;;;;;;;14.80;8.10;;;;;;;2.80;74.12;100146.66;10436207;28;20042;-81
2023/04/02 00:16:06;;;;;;;12.68;6.95;;;;;;;2.53;73.06;100141.84;10372885;28;20045;-80
2023/04/02 00:21:21;;;;;;;15.00;8.07;;;;;;;2.23;73.73;100081.22;10372160;28;20180;-80
2023/04/02 00:26:32;;;;;;;16.70;8.52;;;;;;;2.25;73.65;100081.94;10387458;28;20045;-80
2023/04/02 00:31:36;;;;;;;16.88;8.73;;;;;;;2.65;72.94;100141.69;10449164;28;20053;-81
2023/04/02 00:36:37;;;;;;;16.08;9.57;;;;;;;2.13;72.44;100042.75;10453150;28;20057;-81
2023/04/02 00:41:38;;;;;;;16.08;9.45;;;;;;;2.32;72.22;100086.69;10454657;28;20041;-81
2023/04/02 00:46:48;;;;;;;21.30;10.05;;;;;;;2.60;73.18;100132.50;10453443;28;20139;-81
2023/04/02 00:52:12;;;;;;;15.73;10.10;;;;;;;2.83;73.04;100151.66;10454073;28;20037;-81
2023/04/02 00:57:24;;;;;;;17.85;9.45;;;;;;;2.83;75.55;100136.75;10447715;28;20624;-80
2023/04/02 01:02:31;;;;;;;12.60;8.52;;;;;;;2.51;75.53;100068.53;10453852;28;20052;-80
2023/04/02 01:08:13;;;;;;;11.82;7.07;;;;;;;3.05;75.25;100146.38;10452444;28;20067;-80
2023/04/02 01:13:34;;;;;;;11.23;8.25;;;;;;;2.43;74.87;100070.94;10438187;28;20045;-81
2023/04/02 01:19:24;;;;;;;14.60;8.63;;;;;;;2.42;76.30;100059.63;10460919;28;20033;-81
2023/04/02 01:24:32;;;;;;;12.90;8.07;;;;;;;3.00;75.18;100143.28;10410411;28;20123;-81
2023/04/02 01:29:41;;;;;;;12.30;7.97;;;;;;;2.70;74.63;100100.19;10459604;28;20079;-81
2023/04/02 01:34:44;;;;;;;16.20;7.78;;;;;;;2.91;73.84;100144.84;10458045;28;20034;-81
2023/04/02 01:39:51;;;;;;;17.20;8.55;;;;;;;2.85;73.26;100147.97;10451940;28;20464;-81
2023/04/02 01:45:00;;;;;;;19.45;8.57;;;;;;;2.66;74.03;100119.78;10461079;28;20037;-81
2023/04/02 01:50:08;;;;;;;13.20;9.10;;;;;;;2.79;75.39;100151.09;10459695;28;20041;-80
2023/04/02 01:55:12;;;;;;;15.13;9.93;;;;;;;2.69;74.52;100148.38;10459498;28;20556;-80
2023/04/02 02:00:15;;;;;;;17.83;9.90;;;;;;;2.69;74.24;100137.88;10459895;28;20041;-81
2023/04/02 02:05:20;;;;;;;13.82;9.60;;;;;;;2.10;74.14;100059.56;10459910;28;20041;-81
2023/04/02 02:10:23;;;;;;;;;;;;;;;2.71;74.21;100132.50;10459666;28;20036;-81
2023/04/02 02:15:24;;;;;;;13.60;8.15;;;;;;;2.50;73.50;100125.38;10458588;28;19975;-81
2023/04/02 02:20:27;;;;;;;11.45;7.65;;;;;;;2.06;74.38;100060.72;10458025;28;20128;-81
2023/04/02 02:25:32;;;;;;;14.55;7.35;;;;;;;2.46;75.33;100123.13;10458641;28;20064;-81
2023/04/02 02:30:48;;;;;;;16.98;8.27;;;;;;;2.59;77.48;100134.31;10457600;28;20129;-81
2023/04/02 02:36:05;;;;;;;13.55;9.02;;;;;;;2.31;77.48;100069.31;10458485;28;20061;-81
2023/04/02 02:41:16;;;;;;;12.15;8.13;;;;;;;2.44;75.99;100085.72;10445840;28;20045;-81
2023/04/02 02:46:21;;;;;;;11.68;7.95;;;;;;;2.28;75.67;100052.84;10458396;28;20090;-81
2023/04/02 02:51:38;;;;;;;15.32;8.23;;;;;;;2.61;76.75;100097.50;10461681;28;20044;-81
2023/04/02 02:56:46;;;;;;;15.95;9.07;;;;;;;2.82;76.38;100131.66;10461240;28;20047;-81
2023/04/02 03:01:47;;;;;;;15.40;9.18;;;;;;;2.75;74.87;100123.41;10460799;28;20163;-82
2023/04/02 03:06:54;;;;;;;15.00;9.60;;;;;;;2.77;75.87;100112.81;10462178;28;20195;-82
2023/04/02 03:12:16;;;;;;;15.68;9.63;;;;;;;2.90;76.77;100113.47;10462003;28;20047;-81
2023/04/02 03:17:44;;;;;;;13.20;9.55;;;;;;;2.85;76.04;100121.72;10401468;28;20037;-81
2023/04/02 03:22:53;;;;;;;20.88;9.45;;;;;;;3.03;75.43;100148.28;10378259;28;20056;-81
2023/04/02 03:28:01;;;;;;;15.63;11.38;;;;;;;2.98;75.51;100113.69;10380032;28;20421;-81
2023/04/02 03:33:20;;;;;;;15.93;10.52;;;;;;;3.16;75.98;100151.56;10377682;28;20045;-81
2023/04/02 03:38:27;;;;;;;14.07;9.95;;;;;;;3.11;75.14;100148.50;10393625;28;20093;-82
2023/04/02 03:43:39;;;;;;;18.55;9.52;;;;;;;3.34;75.47;100161.53;10454174;28;20040;-82
2023/04/02 03:48:47;;;;;;;18.80;9.27;;;;;;;3.42;74.54;100172.22;10455980;28;20048;-81
2023/04/02 03:53:48;;;;;;;21.17;14.30;;;;;;;3.54;74.14;100165.13;10455137;28;20037;-80
2023/04/02 03:59:01;;;;;;;26.23;13.25;;;;;;;3.70;74.94;100169.94;10422873;28;20087;-81
2023/04/02 04:04:24;;;;;;;23.85;14.18;;;;;;;3.94;75.21;100162.63;10412836;28;20041;-81
2023/04/02 04:09:30;;;;;;;22.30;13.40;;;;;;;3.98;74.13;100157.94;10380641;28;20149;-81
2023/04/02 04:14:36;;;;;;;17.60;10.48;;;;;;;4.11;73.71;100164.66;10371155;28;20115;-81
2023/04/02 04:19:45;;;;;;;15.60;9.25;;;;;;;4.46;74.41;100176.59;10372601;28;20112;-81
2023/04/02 04:24:47;;;;;;;14.88;10.13;;;;;;;4.62;73.16;100176.06;10430557;28;20048;-81
2023/04/02 04:30:02;;;;;;;17.02;10.70;;;;;;;4.84;73.27;100167.13;10453201;28;20047;-81
2023/04/02 04:35:07;;;;;;;16.17;9.52;;;;;;;5.12;72.10;100167.31;10454613;28;20048;-82
2023/04/02 04:40:26;;;;;;;12.75;9.70;;;;;;;5.55;72.11;100176.59;10454817;28;20390;-81
2023/04/02 04:45:45;;;;;;;14.80;10.02;;;;;;;5.88;70.41;100181.41;10461471;28;20052;-82
2023/04/02 04:50:52;;;;;;;14.88;9.65;;;;;;;6.20;70.51;100180.28;10446788;28;20064;-82
2023/04/02 04:56:05;;;;;;;21.20;9.88;;;;;;;6.87;68.08;100188.84;10380452;28;20076;-77
2023/04/02 05:01:26;;;;;;;14.63;9.65;;;;;;;7.41;66.50;100189.72;10380210;28;20033;-83
2023/04/02 05:06:44;;;;;;;16.80;10.10;;;;;;;7.58;66.90;100195.19;10379367;28;20045;-82
2023/04/02 05:11:51;;;;;;;17.95;9.52;;;;;;;7.86;66.08;100182.66;10379814;28;20042;-82
2023/04/02 05:17:03;;;;;;;13.95;10.27;;;;;;;8.28;64.94;100171.34;10379252;28;20048;-83
2023/04/02 05:22:48;;;;;;;14.43;9.70;;;;;;;8.93;62.97;100184.91;10379798;28;20045;-83
2023/04/02 05:28:03;;;;;;;11.32;9.05;;;;;;;9.17;62.18;100185.94;10359253;28;20060;-83
2023/04/02 05:33:21;;;;;;;16.33;9.70;;;;;;;9.59;61.12;100191.13;10379388;28;20045;-84
2023/04/02 05:38:25;;;;;;;11.80;9.07;;;;;;;9.66;60.89;100199.25;10378153;28;20065;-83
2023/04/02 05:43:31;;;;;;;13.85;9.88;;;;;;;9.44;59.80;100180.34;10377970;28;20475;-82
2023/04/02 05:48:43;;;;;;;14.10;9.00;;;;;;;9.40;59.31;100133.97;10376631;28;20050;-81
2023/04/02 05:53:57;;;;;;;14.77;9.27;;;;;;;10.15;58.41;100201.88;10377552;28;20511;-84
2023/04/02 05:59:24;;;;;;;15.75;9.75;;;;;;;10.28;58.91;100202.22;10381733;28;20057;-81
2023/04/02 06:04:46;;;;;;;16.92;9.15;;;;;;;10.71;57.26;100192.13;10375678;28;20088;-82
2023/04/02 06:09:57;;;;;;;15.27;9.40;;;;;;;10.15;55.57;100085.91;10376874;28;20060;-84
2023/04/02 06:14:58;;;;;;;12.88;9.60;;;;;;;10.61;56.58;100191.50;10377453;28;20038;-83
2023/04/02 06:20:01;;;;;;;15.77;9.45;;;;;;;10.82;56.57;100198.88;10377140;28;20046;-83
2023/04/02 06:25:14;;;;;;;13.63;8.43;;;;;;;11.14;55.20;100187.25;10376352;28;20132;-83
2023/04/02 06:30:20;;;;;;;9.73;6.60;;;;;;;11.33;53.23;100186.78;10376082;28;20046;-83
2023/04/02 06:35:21;;;;;;;8.00;5.80;;;;;;;11.53;52.52;100170.38;10406556;28;20280;-81
2023/04/02 06:40:34;;;;;;;10.80;5.47;;;;;;;11.92;49.76;100174.72;10436359;28;20068;-83
2023/04/02 06:45:40;;;;;;;12.73;5.30;;;;;;;12.00;48.75;100114.25;10401375;28;20042;-80
2023/04/02 06:50:54;;;;;;;10.25;4.70;;;;;;;12.47;47.77;100178.78;10396603;28;20473;-83
2023/04/02 06:59:44;;;;;;;10.20;5.60;;;;;;;12.91;49.25;100153.94;10525940;27;20401;-84
2023/04/02 07:04:45;;;;;;;6.47;4.00;;;;;;;13.16;48.80;100168.56;10489813;28;20063;-80
2023/04/02 07:09:46;;;;;;;6.28;4.30;;;;;;;13.36;47.97;100159.97;10490442;28;20041;-80
2023/04/02 07:14:47;;;;;;;7.35;4.13;;;;;;;13.23;47.58;100140.13;10490923;28;20079;-81
2023/04/02 07:19:48;;;;;;;11.25;3.97;;;;;;;13.40;47.07;100134.53;10489771;28;20044;-81
2023/04/02 07:24:49;;;;;;;7.10;4.00;;;;;;;13.00;46.69;100131.47;10489417;28;20128;-81
2023/04/02 07:29:50;;;;;;;4.85;3.47;;;;;;;13.02;46.67;100108.13;10488474;28;20128;-81
2023/04/02 07:34:50;;;;;;;7.60;3.85;;;;;;;13.06;46.39;100136.03;10488532;28;20091;-80
2023/04/02 07:39:51;;;;;;;5.22;3.45;;;;;;;13.00;46.25;100086.97;10489284;28;20044;-82
2023/04/02 07:44:52;;;;;;;9.27;4.15;;;;;;;13.54;46.14;100130.16;10487932;28;20052;-80
2023/04/02 07:49:53;;;;;;;6.32;3.63;;;;;;;13.73;46.01;100109.97;10487653;28;20064;-80
2023/04/02 07:54:54;;;;;;;6.95;3.83;;;;;;;14.14;46.32;100108.19;10488072;28;20135;-81
2023/04/02 07:59:56;;;;;;;7.10;3.85;;;;;;;14.12;44.87;100088.88;10488637;28;20055;-80
2023/04/02 08:04:57;;;;;;;7.13;3.75;;;;;;;14.24;44.47;100032.19;10487119;28;20520;-81
2023/04/02 08:09:59;;;;;;;7.38;4.07;;;;;;;14.24;44.31;100018.84;10464146;28;20041;-79
2023/04/02 08:15:04;;;;;;;7.85;3.90;;;;;;;14.84;44.22;100079.53;10456990;28;20049;-80
2023/04/02 08:20:06;;;;;;;8.63;4.20;;;;;;;14.96;43.24;100042.31;10460293;28;20044;-80
2023/04/02 08:25:08;;;;;;;6.38;3.80;;;;;;;15.50;42.03;100057.34;10460089;28;20131;-79
2023/04/02 08:30:11;;;;;;;7.55;4.13;;;;;;;14.94;41.70;100028.31;10459264;28;20044;-80
2023/04/02 08:35:15;;;;;;;8.43;3.95;;;;;;;15.24;41.43;100055.50;10458756;28;20131;-80
2023/04/02 08:40:40;;;;;;;7.97;4.47;;;;;;;15.67;41.03;100032.81;10459336;28;20073;-80
2023/04/02 08:46:04;;;;;;;8.00;4.80;;;;;;;15.40;41.00;100038.19;10445618;28;20135;-80
2023/04/02 08:51:09;;;;;;;9.15;3.65;;;;;;;14.90;41.42;99956.69;10422787;28;20058;-74
2023/04/02 08:56:28;;;;;;;7.28;3.58;;;;;;;15.52;41.16;100027.69;10363170;28;20062;-73
2023/04/02 09:01:51;;;;;;;7.25;2.75;;;;;;;15.38;39.94;100026.06;10334087;28;20054;-74
2023/04/02 09:06:55;;;;;;;4.70;2.35;;;;;;;15.42;40.07;100012.06;10352523;28;20042;-74
2023/04/02 09:12:02;;;;;;;9.53;3.60;;;;;;;15.83;40.04;100024.38;10345403;28;20037;-75
2023/04/02 09:17:18;;;;;;;248.43;22.73;;;;;;;15.80;39.68;99984.63;10339961;28;20074;-75
2023/04/02 09:22:22;;;;;;;7.43;3.63;;;;;;;15.37;39.58;99947.59;10335235;28;20053;-76
2023/04/02 09:27:26;;;;;;;9.27;3.28;;;;;;;15.79;39.42;99961.53;10375670;28;20045;-77
2023/04/02 09:32:30;;;;;;;6.72;3.40;;;;;;;15.60;38.54;99868.69;10374665;28;20046;-78
2023/04/02 09:37:32;;;;;;;6.60;2.67;;;;;;;16.22;38.74;99939.50;10374857;28;20408;-74
2023/04/02 09:42:36;;;;;;;11.93;5.80;;;;;;;16.34;38.43;99999.44;10356227;28;20494;-75
2023/04/02 09:47:38;;;;;;;;;;;;;;;16.64;38.68;99990.81;10369646;28;20448;-75
2023/04/02 09:52:39;;;;;;;5.40;2.75;;;;;;;16.03;39.27;99948.47;10373636;28;20364;-75
2023/04/02 09:57:40;;;;;;;5.07;2.20;;;;;;;16.33;39.30;99983.56;10373089;28;20160;-75
2023/04/02 10:02:42;;;;;;;2.90;2.00;;;;;;;15.35;39.48;99879.28;10352113;28;20101;-75
2023/04/02 10:07:47;;;;;;;7.28;1.95;;;;;;;15.74;39.49;99954.16;10332574;28;20046;-74
2023/04/02 10:13:02;;;;;;;8.05;2.65;;;;;;;15.86;39.43;99975.75;10332947;28;20045;-75
2023/04/02 10:18:24;;;;;;;4.50;1.90;;;;;;;16.13;38.93;99951.53;10332943;28;20045;-74
2023/04/02 10:23:28;;;;;;;4.68;1.83;;;;;;;16.28;39.40;99959.28;10332185;28;20042;-74
2023/04/02 10:28:41;;;;;;;3.88;1.98;;;;;;;16.52;38.90;99955.00;10335042;28;20100;-74
2023/04/02 10:33:49;;;;;;;6.70;2.13;;;;;;;16.53;38.09;99941.38;10319434;28;20046;-75
2023/04/02 10:39:30;;;;;;;3.33;2.10;;;;;;;16.01;37.80;99883.56;10328963;28;20517;-75
2023/04/02 10:44:48;;;;;;;7.60;2.45;;;;;;;16.22;38.11;99944.06;10333527;28;20477;-83
2023/04/02 10:50:13;;;;;;;13.90;2.75;;;;;;;16.37;38.03;99937.34;10336693;28;20089;-78
2023/04/02 10:55:30;;;;;;;6.47;2.60;;;;;;;16.32;38.16;99922.94;10325866;28;20081;-79
2023/04/02 11:00:36;;;;;;;16.58;3.35;;;;;;;16.28;38.14;99925.25;10330452;28;20060;-79
2023/04/02 11:05:45;;;;;;;14.15;2.83;;;;;;;16.35;38.21;99903.75;10331688;28;20042;-77
2023/04/02 11:10:52;;;;;;;5.25;1.80;;;;;;;16.38;37.99;99912.19;10332004;28;20461;-78
2023/04/02 11:15:53;;;;;;;37.17;5.55;;;;;;;16.41;38.90;99900.22;10347519;28;20042;-78
2023/04/02 11:20:57;;;;;;;6.93;1.90;;;;;;;16.31;38.23;99906.06;10331951;28;20053;-79
2023/04/02 11:26:36;;;;;;;3.40;1.90;;;;;;;16.77;38.30;99914.81;10357715;28;20042;-79
2023/04/02 11:31:37;;;;;;;4.25;1.63;;;;;;;16.19;38.25;99836.25;10331743;28;20061;-79
2023/04/02 11:36:50;;;;;;;5.78;1.60;;;;;;;16.62;38.64;99926.66;10331011;28;20042;-77
2023/04/02 11:42:20;;;;;;;134.70;12.43;;;;;;;16.68;38.71;99911.56;10331539;28;20585;-78
2023/04/02 11:47:26;;;;;;;12.20;2.40;;;;;;;16.22;38.17;99832.31;10339083;28;20046;-79
2023/04/02 11:52:44;;;;;;;6.70;1.90;;;;;;;16.44;38.05;99864.91;10354253;28;20049;-78
2023/04/02 11:57:59;;;;;;;213.23;21.65;;;;;;;16.74;37.95;99840.94;10345531;28;20511;-79
2023/04/02 12:03:18;;;;;;;10.82;4.78;;;;;;;17.48;37.80;99910.84;10338863;28;20089;-79
2023/04/02 12:08:45;;;;;;;48.05;5.38;;;;;;;17.97;37.12;99911.72;10338399;28;20041;-79
2023/04/02 12:13:48;;;;;;;19.63;4.25;;;;;;;17.73;37.38;99916.13;10352527;28;20375;-78
2023/04/02 12:18:54;;;;;;;11.30;2.45;;;;;;;17.91;37.20;99912.63;10339373;28;20456;-79
2023/04/02 12:23:59;;;;;;;26.92;5.18;;;;;;;18.11;36.84;99913.19;10344681;28;20042;-81
2023/04/02 12:29:23;;;;;;;4.80;1.90;;;;;;;18.18;36.96;99902.34;10337016;28;20053;-86
2023/04/02 12:34:27;;;;;;;12.60;2.92;;;;;;;17.88;36.76;99910.38;10344222;28;20472;-87
2023/04/02 12:39:30;;;;;;;35.05;6.75;;;;;;;17.56;37.11;99918.59;10374112;28;20069;-88
2023/04/02 12:44:31;;;;;;;5.50;1.98;;;;;;;17.29;38.02;99896.56;10336672;28;20042;-86
2023/04/02 12:49:39;;;;;;;17.25;8.20;;;;;;;17.32;37.56;99910.41;10337352;28;20046;-81
2023/04/02 12:54:52;;;;;;;66.70;45.65;;;;;;;17.36;38.29;99896.53;10335965;28;20498;-84
2023/04/02 12:59:54;;;;;;;39.60;21.93;;;;;;;16.97;38.17;99824.25;10335294;28;20457;-85
2023/04/02 13:05:01;;;;;;;33.47;11.02;;;;;;;17.30;38.05;99887.50;10336408;28;20054;-86
2023/04/02 13:10:22;;;;;;;13.77;7.25;;;;;;;17.04;38.13;99869.78;10335721;28;20065;-86
2023/04/02 13:15:27;;;;;;;19.48;4.28;;;;;;;16.86;38.47;99884.00;10335206;28;20042;-84
2023/04/02 13:20:39;;;;;;;36.92;21.65;;;;;;;16.95;39.06;99900.63;10334689;28;20038;-85
2023/04/02 13:25:39;;;;;;;16.50;7.75;;;;;;;16.49;38.85;99824.06;10334502;28;20375;-84
2023/04/02 13:30:40;;;;;;;234.75;17.73;;;;;;;16.88;39.13;99882.75;10333915;28;20038;-83
2023/04/02 13:35:42;;;;;;;22.92;14.60;;;;;;;16.57;39.34;99880.06;10355821;28;20046;-83
2023/04/02 13:40:43;;;;;;;630.80;434.02;;;;;;;16.53;39.42;99892.28;10372796;28;20049;-83
2023/04/02 13:45:48;;;;;;;88.78;39.42;;;;;;;16.38;39.31;99887.25;10350084;28;20129;-83
2023/04/02 13:50:50;;;;;;;102.43;61.75;;;;;;;16.29;39.47;99864.41;10334954;28;20042;-83
2023/04/02 13:55:52;;;;;;;188.00;42.72;;;;;;;15.85;39.54;99799.97;10335595;28;20070;-80
2023/04/02 14:00:53;;;;;;;32.53;15.70;;;;;;;16.15;39.65;99850.28;10333956;28;20038;-84
2023/04/02 14:06:19;;;;;;;45.97;18.10;;;;;;;16.36;39.89;99876.75;10332692;28;20050;-84
2023/04/02 14:11:26;;;;;;;21.08;11.35;;;;;;;16.28;39.63;99887.72;10332521;28;20413;-84
2023/04/02 14:16:56;;;;;;;29.35;8.60;;;;;;;16.18;40.07;99884.69;10332177;28;20046;-84
2023/04/02 14:22:11;;;;;;;618.53;524.72;;;;;;;16.04;40.58;99899.22;10332273;28;20050;-84
2023/04/02 14:27:26;;;;;;;296.45;182.50;;;;;;;15.94;40.66;99894.31;10333348;28;20038;-83
2023/04/02 14:33:00;;;;;;;157.80;116.05;;;;;;;15.91;40.72;99900.09;10333310;28;20053;-82
2023/04/02 14:38:23;;;;;;;26.20;19.23;;;;;;;15.71;41.31;99905.56;10338921;28;20081;-84
2023/04/02 14:43:35;;;;;;;31.85;14.20;;;;;;;15.51;41.76;99911.75;10342942;28;20137;-84
2023/04/02 14:48:56;;;;;;;11.80;4.57;;;;;;;15.21;42.26;99881.97;10345509;28;20041;-83
2023/04/02 14:54:14;;;;;;;23.40;9.95;;;;;;;15.13;42.37;99902.78;10343381;28;20049;-84
2023/04/02 14:59:51;;;;;;;18.52;8.63;;;;;;;14.83;43.21;99896.03;10344024;28;20399;-84
2023/04/02 15:05:02;;;;;;;9.30;3.08;;;;;;;14.64;43.50;99904.06;10346868;28;20050;-84
2023/04/02 15:10:23;;;;;;;10.07;2.83;;;;;;;14.36;44.14;99881.81;10347689;28;20502;-84
2023/04/02 15:15:40;;;;;;;8.65;2.47;;;;;;;14.55;44.23;99922.97;10349941;28;20069;-83
2023/04/02 15:20:58;;;;;;;18.75;3.78;;;;;;;14.48;44.63;99916.78;10357732;28;20390;-84
2023/04/02 15:26:27;;;;;;;36.97;8.40;;;;;;;14.32;44.93;99927.81;10354714;28;20045;-82
2023/04/02 15:31:28;;;;;;;26.75;8.25;;;;;;;14.10;45.24;99935.19;10361951;28;20081;-83
2023/04/02 15:36:40;;;;;;;22.98;8.95;;;;;;;13.43;46.48;99857.53;10354794;28;20066;-82
2023/04/02 15:41:56;;;;;;;52.72;17.55;;;;;;;13.44;46.33;99895.69;10361346;28;20074;-84
2023/04/02 15:47:15;;;;;;;82.35;25.60;;;;;;;13.49;47.98;99935.97;10345461;28;20118;-82
2023/04/02 15:52:50;;;;;;;45.20;16.02;;;;;;;13.11;49.36;99938.97;10349360;28;20073;-81
2023/04/02 15:58:34;;;;;;;255.85;67.07;;;;;;;12.92;49.93;99942.28;10347484;28;20057;-84
2023/04/02 16:03:44;;;;;;;155.25;57.55;;;;;;;12.62;50.80;99945.09;10336463;28;20136;-83
2023/04/02 16:09:07;;;;;;;75.68;34.15;;;;;;;12.31;50.62;99938.25;10361882;28;20041;-83
2023/04/02 16:14:23;;;;;;;91.90;41.20;;;;;;;12.21;50.10;99967.03;10359022;28;20105;-82
2023/04/02 16:19:37;;;;;;;150.93;56.30;;;;;;;11.99;52.70;99942.19;10336135;28;20042;-82
2023/04/02 16:24:38;;;;;;;110.95;39.60;;;;;;;11.94;51.30;99955.25;10336688;28;20066;-83
2023/04/02 16:29:42;;;;;;;76.32;30.27;;;;;;;11.99;52.33;99973.31;10335996;28;20102;-82
2023/04/02 16:34:59;;;;;;;79.97;28.90;;;;;;;11.56;52.83;99909.31;10337163;28;20046;-82
2023/04/02 16:40:24;;;;;;;361.55;118.28;;;;;;;11.83;54.40;99974.31;10335280;28;20050;-82
2023/04/02 16:45:28;;;;;;;355.55;123.20;;;;;;;11.71;53.44;99997.09;10336121;28;20042;-82
2023/04/02 16:51:09;;;;;;;61.50;23.97;;;;;;;11.45;56.69;100001.00;10336174;28;20109;-82
2023/04/02 16:56:29;;;;;;;78.75;27.48;;;;;;;11.27;56.25;99998.69;10333552;28;20097;-84
2023/04/02 17:02:09;;;;;;;14.60;7.13;;;;;;;11.08;56.30;100007.19;10335306;28;20046;-82
2023/04/02 17:07:24;;;;;;;73.45;22.00;;;;;;;10.71;56.60;99990.22;10323661;28;20137;-82
2023/04/02 17:12:43;;;;;;;127.22;37.30;;;;;;;10.71;57.57;100003.50;10335415;28;20037;-82
2023/04/02 17:17:44;;;;;;;29.10;10.32;;;;;;;10.04;56.44;99932.34;10333890;28;20601;-82
2023/04/02 17:22:46;;;;;;;23.73;6.95;;;;;;;10.38;56.63;100005.53;10334983;28;20035;-82
2023/04/02 17:27:51;;;;;;;28.25;8.75;;;;;;;10.35;57.24;100008.53;10334842;28;20045;-82
2023/04/02 17:32:52;;;;;;;77.65;19.08;;;;;;;9.78;56.91;99919.38;10335202;28;20042;-82
2023/04/02 17:38:19;;;;;;;58.58;20.40;;;;;;;10.39;58.74;100034.56;10334958;28;20049;-82
2023/04/02 17:43:25;;;;;;;44.38;15.10;;;;;;;10.27;57.67;100026.16;10333394;28;20092;-82
2023/04/02 17:48:45;;;;;;;28.88;7.70;;;;;;;10.14;58.92;100033.00;10326636;28;20043;-82
2023/04/02 17:54:05;;;;;;;24.40;7.85;;;;;;;10.01;58.78;100015.78;10293484;28;20045;-82
2023/04/02 17:59:39;;;;;;;25.65;9.63;;;;;;;10.03;59.96;100035.03;10293844;28;20082;-82
2023/04/02 18:04:55;;;;;;;20.67;7.45;;;;;;;9.95;59.47;100029.75;10292808;28;20094;-82
2023/04/02 18:10:08;;;;;;;28.92;9.98;;;;;;;9.81;60.58;100035.75;10293603;28;20538;-82
2023/04/02 18:15:21;;;;;;;36.65;10.85;;;;;;;9.31;60.63;99949.41;10307593;28;20050;-83
2023/04/02 18:20:35;;;;;;;44.00;15.95;;;;;;;9.74;61.67;100040.09;10293363;28;20039;-83
2023/04/02 18:25:49;;;;;;;23.10;8.27;;;;;;;9.14;61.61;99964.50;10293174;28;20070;-82
2023/04/02 18:31:15;;;;;;;30.90;6.45;;;;;;;9.41;61.26;100037.50;10308046;28;20070;-83
2023/04/02 18:36:57;;;;;;;28.70;9.43;;;;;;;9.19;62.43;100022.31;10303021;28;20136;-83
2023/04/02 18:42:16;;;;;;;31.50;7.38;;;;;;;8.64;62.07;99968.16;10351570;28;20129;-79
2023/04/02 18:47:22;;;;;;;27.75;7.32;;;;;;;8.83;61.40;100035.88;10332621;28;20050;-80
2023/04/02 18:52:23;;;;;;;45.38;10.60;;;;;;;8.00;62.34;99950.16;10346584;28;20177;-80
2023/04/02 18:57:29;;;;;;;50.40;15.40;;;;;;;8.34;64.13;100022.50;10317974;28;20162;-79
2023/04/02 19:02:43;;;;;;;41.25;11.45;;;;;;;8.33;65.73;100031.44;10291194;28;20038;-81
2023/04/02 19:07:47;;;;;;;16.43;4.80;;;;;;;8.08;64.96;100012.03;10291560;28;20053;-80
2023/04/02 19:12:47;;;;;;;33.78;11.38;;;;;;;8.00;64.04;100020.75;10318069;28;20284;-79
2023/04/02 19:18:02;;;;;;;134.05;50.47;;;;;;;7.65;66.79;100014.63;10332048;28;20453;-80
2023/04/02 19:23:36;;;;;;;144.45;40.63;;;;;;;7.59;67.97;100035.56;10338306;28;20042;-81
2023/04/02 19:29:09;;;;;;;122.75;37.67;;;;;;;7.58;68.42;100037.41;10343565;28;20121;-82
2023/04/02 19:34:47;;;;;;;262.05;67.40;;;;;;;7.44;68.86;100043.25;10332490;28;20087;-79
2023/04/02 19:39:59;;;;;;;158.88;44.15;;;;;;;6.78;65.71;99941.56;10339633;28;20080;-79
2023/04/02 19:45:01;;;;;;;135.43;38.85;;;;;;;7.04;66.23;100005.00;10330791;28;20421;-80
2023/04/02 19:50:03;;;;;;;107.03;32.58;;;;;;;6.97;66.66;100009.22;10343824;28;20510;-81
2023/04/02 19:55:04;;;;;;;103.45;31.42;;;;;;;6.90;66.59;100027.47;10356870;28;20138;-79
2023/04/02 20:00:06;;;;;;;108.55;32.30;;;;;;;6.72;67.34;100003.72;10330381;28;20054;-79
2023/04/02 20:05:07;;;;;;;87.88;27.52;;;;;;;6.68;67.49;100027.94;10335355;28;20050;-79
2023/04/02 20:10:09;;;;;;;55.70;18.65;;;;;;;6.40;67.81;99991.91;10338382;28;20151;-79
2023/04/02 20:15:10;;;;;;;153.60;41.53;;;;;;;5.96;68.03;99935.56;10315620;28;20051;-80
2023/04/02 20:20:12;;;;;;;40.53;14.05;;;;;;;6.37;68.77;100028.28;10297389;28;20074;-80
2023/04/02 20:25:13;;;;;;;57.80;23.30;;;;;;;5.62;68.81;99943.19;10297291;28;20181;-80
2023/04/02 20:30:14;;;;;;;40.00;12.43;;;;;;;5.97;69.80;100033.94;10297105;28;20181;-80
2023/04/02 20:35:15;;;;;;;76.68;20.10;;;;;;;5.91;70.16;100033.50;10297169;28;20124;-80
2023/04/02 20:40:15;;;;;;;23.92;10.05;;;;;;;5.76;69.99;100021.75;10296160;28;20442;-80
2023/04/02 20:45:16;;;;;;;18.15;8.60;;;;;;;5.17;69.55;99943.91;10296446;28;20447;-79
2023/04/02 20:50:17;;;;;;;15.10;7.30;;;;;;;5.55;69.20;100031.69;10296319;28;20042;-80
2023/04/02 20:55:17;;;;;;;18.55;7.32;;;;;;;5.40;69.67;100029.50;10295702;28;20058;-80
2023/04/02 21:00:19;;;;;;;34.15;9.95;;;;;;;4.64;70.00;99899.69;10296038;28;20059;-80
2023/04/02 21:05:19;;;;;;;28.33;8.85;;;;;;;4.87;69.75;99955.47;10295610;28;20054;-79
2023/04/02 21:10:20;;;;;;;22.35;8.48;;;;;;;5.30;70.15;100048.94;10310470;28;20043;-81
2023/04/02 21:15:21;;;;;;;18.65;7.15;;;;;;;5.01;70.00;100002.41;10295242;28;20125;-80
2023/04/02 21:20:22;;;;;;;41.10;14.88;;;;;;;4.91;70.35;99989.28;10295066;28;20049;-80
2023/04/02 21:25:22;;;;;;;41.33;8.15;;;;;;;5.01;70.45;100034.00;10294833;28;20039;-80
2023/04/02 21:30:23;;;;;;;14.80;5.47;;;;;;;4.99;71.28;100039.38;10309439;28;20078;-81
2023/04/02 21:35:24;;;;;;;8.70;4.88;;;;;;;4.47;70.85;100002.00;10294388;28;20042;-80
2023/04/02 21:40:25;;;;;;;13.43;5.18;;;;;;;4.12;72.38;99963.06;10294691;28;20046;-80
2023/04/02 21:45:26;;;;;;;16.60;6.57;;;;;;;4.37;71.58;100014.31;10293712;28;20043;-80
2023/04/02 21:50:27;;;;;;;17.73;6.47;;;;;;;4.46;72.05;100024.03;10312051;28;20038;-80
2023/04/02 21:55:28;;;;;;;15.77;5.93;;;;;;;4.43;71.57;100026.06;10333089;28;20054;-80
2023/04/02 22:00:28;;;;;;;12.85;5.07;;;;;;;4.30;72.04;100011.38;10333226;28;20042;-81
2023/04/02 22:05:30;;;;;;;13.52;5.65;;;;;;;4.19;71.99;100002.78;10333560;28;20042;-80
2023/04/02 22:10:30;;;;;;;10.98;4.57;;;;;;;4.00;71.34;100001.78;10333201;28;20035;-79
2023/04/02 22:15:32;;;;;;;14.05;4.20;;;;;;;3.87;71.36;100001.19;10344414;28;20500;-80
2023/04/02 22:20:36;;;;;;;5.65;3.80;;;;;;;3.80;72.08;99994.78;10332447;28;20046;-80
2023/04/02 22:25:37;;;;;;;9.15;4.57;;;;;;;3.84;72.26;100006.72;10332528;28;20049;-80
2023/04/02 22:30:38;;;;;;;18.88;5.97;;;;;;;3.79;72.68;100003.63;10333298;28;20134;-80
2023/04/02 22:35:38;;;;;;;10.73;4.10;;;;;;;3.42;72.51;99983.16;10332140;28;20048;-80
2023/04/02 22:40:39;;;;;;;10.00;3.90;;;;;;;3.50;72.77;100003.50;10331774;28;20228;-80
2023/04/02 22:45:44;;;;;;;10.20;4.35;;;;;;;3.01;74.19;99935.00;10331631;28;20104;-80
2023/04/02 22:50:49;;;;;;;9.23;3.70;;;;;;;3.39;74.14;100009.69;10331627;28;20410;-80
2023/04/02 22:55:51;;;;;;;11.27;4.57;;;;;;;2.53;72.88;99877.00;10346197;28;20145;-80
2023/04/02 23:00:51;;;;;;;12.43;5.22;;;;;;;3.30;73.06;100006.03;10331817;28;20557;-81
2023/04/02 23:06:04;;;;;;;21.90;4.75;;;;;;;3.21;74.62;99993.69;10331862;28;20054;-80
2023/04/02 23:11:16;;;;;;;42.30;11.70;;;;;;;3.17;75.81;100002.78;10331842;28;20077;-81
2023/04/02 23:16:17;;;;;;;20.48;7.25;;;;;;;3.21;73.97;100014.69;10330849;28;20116;-81
2023/04/02 23:21:19;;;;;;;26.90;10.63;;;;;;;3.01;73.73;100000.59;10331099;28;20049;-80
2023/04/02 23:26:28;;;;;;;13.60;4.80;;;;;;;2.52;74.87;99933.88;10331550;28;20623;-79
2023/04/02 23:31:29;;;;;;;12.93;4.78;;;;;;;2.90;73.44;99987.53;10332370;28;20058;-80
2023/04/02 23:36:32;;;;;;;9.73;4.93;;;;;;;3.08;74.40;100014.91;10331192;28;20141;-80
2023/04/02 23:41:32;;;;;;;32.65;9.23;;;;;;;3.12;74.48;100021.53;10336879;28;20031;-80